This is the latest recevied weather packets stored in our database for station/object EB1TK-13. If no packets are shown the sender has not sent any weather packets the latest 10 day(s).
| Time | Temp. | Humidity | Pressure | Rain* | Wind** | Luminosity | Snow |
|---|---|---|---|---|---|---|---|
| 1777477935 | 13.89° C | 88% | 1007.1 hPa | 0 mm | - | - | - |
| 1777476736 | 13.89° C | 90% | 1006.7 hPa | 0 mm | - | - | - |
| 1777476136 | 13.89° C | 90% | 1006.8 hPa | 0 mm | - | - | - |
| 1777474335 | 13.89° C | 90% | 1006.9 hPa | 0 mm | - | - | - |
| 1777473136 | 13.89° C | 91% | 1006.9 hPa | 0 mm | - | - | - |
| 1777472536 | 13.89° C | 91% | 1006.9 hPa | 0 mm | - | - | - |
| 1777471337 | 13.89° C | 90% | 1006.8 hPa | 0 mm | - | - | - |
| 1777469535 | 14.44° C | 87% | 1007.1 hPa | 0 mm | - | - | - |
| 1777468935 | 14.44° C | 86% | 1007.2 hPa | 0 mm | - | - | - |
| 1777468336 | 14.44° C | 88% | 1007.1 hPa | 0 mm | - | - | - |
| 1777467739 | 14.44° C | 88% | 1007.1 hPa | 0 mm | - | - | - |
| 1777467137 | 14.44° C | 87% | 1007.1 hPa | 0 mm | - | - | - |
| 1777465935 | 14.44° C | 84% | 1007.2 hPa | 0 mm | - | - | - |
| 1777465335 | 14.44° C | 84% | 1007.3 hPa | 0 mm | - | - | - |
| 1777464736 | 14.44° C | 86% | 1007.3 hPa | 0 mm | - | - | - |
| 1777464136 | 14.44° C | 88% | 1007.3 hPa | 0 mm | - | - | - |
| 1777462337 | 14.44° C | 91% | 1007.3 hPa | 0 mm | - | - | - |
| 1777461735 | 14.44° C | 90% | 1007.3 hPa | 0 mm | - | - | - |
| 1777461135 | 15° C | 90% | 1007.3 hPa | 0 mm | - | - | - |
| 1777460536 | 14.44° C | 90% | 1007.4 hPa | 0 mm | - | - | - |
| 1777458737 | 14.44° C | 91% | 1007.5 hPa | 0 mm | - | - | - |
| 1777458135 | 14.44° C | 91% | 1007.5 hPa | 0 mm | - | - | - |
| 1777457535 | 14.44° C | 91% | 1007.5 hPa | 0 mm | - | - | - |
| 1777456935 | 14.44° C | 90% | 1007.5 hPa | 0 mm | - | - | - |
| 1777455137 | 14.44° C | 90% | 1007.6 hPa | 0 mm | - | - | - |
* Rain latest hour (hover to see other rain measurements)
** Current wind speed in m/s (hover to see current wind gust speed)